sensor_id;sensor_type;location;lat;lon;timestamp;P1;durP1;ratioP1;P2;durP2;ratioP2
19623;SDS011;9959;49.798;9.928;2023-08-01T00:02:16;13.82;;;6.85;;
19623;SDS011;9959;49.798;9.928;2023-08-01T00:04:43;23.48;;;7.13;;
19623;SDS011;9959;49.798;9.928;2023-08-01T00:07:10;12.75;;;6.88;;
19623;SDS011;9959;49.798;9.928;2023-08-01T00:09:37;16.48;;;7.28;;
19623;SDS011;9959;49.798;9.928;2023-08-01T00:12:04;16.48;;;6.65;;
19623;SDS011;9959;49.798;9.928;2023-08-01T00:14:31;13.27;;;6.10;;
19623;SDS011;9959;49.798;9.928;2023-08-01T00:16:59;11.93;;;6.70;;
19623;SDS011;9959;49.798;9.928;2023-08-01T00:19:26;14.50;;;6.95;;
19623;SDS011;9959;49.798;9.928;2023-08-01T00:21:54;18.67;;;7.13;;
19623;SDS011;9959;49.798;9.928;2023-08-01T00:24:21;12.75;;;6.82;;
19623;SDS011;9959;49.798;9.928;2023-08-01T00:26:48;15.10;;;7.00;;
19623;SDS011;9959;49.798;9.928;2023-08-01T00:29:14;16.20;;;7.15;;
19623;SDS011;9959;49.798;9.928;2023-08-01T00:31:41;21.70;;;7.40;;
19623;SDS011;9959;49.798;9.928;2023-08-01T00:34:08;15.20;;;6.30;;
19623;SDS011;9959;49.798;9.928;2023-08-01T00:36:35;15.57;;;7.28;;
19623;SDS011;9959;49.798;9.928;2023-08-01T00:39:02;12.00;;;6.68;;
19623;SDS011;9959;49.798;9.928;2023-08-01T00:41:29;17.45;;;7.32;;
19623;SDS011;9959;49.798;9.928;2023-08-01T00:43:56;14.85;;;6.72;;
19623;SDS011;9959;49.798;9.928;2023-08-01T00:46:23;15.75;;;7.07;;
19623;SDS011;9959;49.798;9.928;2023-08-01T00:48:51;16.55;;;7.10;;
19623;SDS011;9959;49.798;9.928;2023-08-01T00:51:19;14.15;;;7.82;;
19623;SDS011;9959;49.798;9.928;2023-08-01T00:53:46;12.88;;;7.45;;
19623;SDS011;9959;49.798;9.928;2023-08-01T00:56:13;14.57;;;7.30;;
19623;SDS011;9959;49.798;9.928;2023-08-01T00:58:39;12.38;;;6.70;;
19623;SDS011;9959;49.798;9.928;2023-08-01T01:01:06;13.65;;;6.90;;
19623;SDS011;9959;49.798;9.928;2023-08-01T01:03:34;13.98;;;7.18;;
19623;SDS011;9959;49.798;9.928;2023-08-01T01:06:09;13.63;;;7.13;;
19623;SDS011;9959;49.798;9.928;2023-08-01T01:08:43;15.15;;;7.40;;
19623;SDS011;9959;49.798;9.928;2023-08-01T01:11:10;13.15;;;6.35;;
19623;SDS011;9959;49.798;9.928;2023-08-01T01:13:37;12.23;;;6.88;;
19623;SDS011;9959;49.798;9.928;2023-08-01T01:16:04;15.27;;;6.78;;
19623;SDS011;9959;49.798;9.928;2023-08-01T01:18:31;19.85;;;7.57;;
19623;SDS011;9959;49.798;9.928;2023-08-01T01:20:58;12.95;;;6.90;;
19623;SDS011;9959;49.798;9.928;2023-08-01T01:23:25;12.15;;;7.15;;
19623;SDS011;9959;49.798;9.928;2023-08-01T01:25:54;13.85;;;6.55;;
19623;SDS011;9959;49.798;9.928;2023-08-01T01:28:23;18.33;;;6.55;;
19623;SDS011;9959;49.798;9.928;2023-08-01T01:30:52;10.15;;;6.05;;
19623;SDS011;9959;49.798;9.928;2023-08-01T01:33:20;12.13;;;6.13;;
19623;SDS011;9959;49.798;9.928;2023-08-01T01:35:47;13.15;;;6.80;;
19623;SDS011;9959;49.798;9.928;2023-08-01T01:38:14;15.27;;;6.50;;
19623;SDS011;9959;49.798;9.928;2023-08-01T01:40:41;13.32;;;6.55;;
19623;SDS011;9959;49.798;9.928;2023-08-01T01:43:08;20.70;;;8.70;;
19623;SDS011;9959;49.798;9.928;2023-08-01T01:45:35;12.93;;;6.07;;
19623;SDS011;9959;49.798;9.928;2023-08-01T01:48:02;12.70;;;6.88;;
19623;SDS011;9959;49.798;9.928;2023-08-01T01:50:29;13.18;;;6.25;;
19623;SDS011;9959;49.798;9.928;2023-08-01T01:52:56;15.93;;;6.45;;
19623;SDS011;9959;49.798;9.928;2023-08-01T01:55:23;13.40;;;6.88;;
19623;SDS011;9959;49.798;9.928;2023-08-01T01:57:50;14.60;;;6.07;;
19623;SDS011;9959;49.798;9.928;2023-08-01T02:00:17;16.05;;;6.20;;
19623;SDS011;9959;49.798;9.928;2023-08-01T02:02:45;10.02;;;6.05;;
19623;SDS011;9959;49.798;9.928;2023-08-01T02:05:12;15.88;;;7.00;;
19623;SDS011;9959;49.798;9.928;2023-08-01T02:07:39;12.05;;;5.90;;
19623;SDS011;9959;49.798;9.928;2023-08-01T02:10:06;11.40;;;6.30;;
19623;SDS011;9959;49.798;9.928;2023-08-01T02:12:33;13.73;;;6.43;;
19623;SDS011;9959;49.798;9.928;2023-08-01T02:15:02;13.05;;;6.13;;
19623;SDS011;9959;49.798;9.928;2023-08-01T02:17:29;13.82;;;6.05;;
19623;SDS011;9959;49.798;9.928;2023-08-01T02:19:56;13.13;;;6.75;;
19623;SDS011;9959;49.798;9.928;2023-08-01T02:22:24;9.00;;;5.50;;
19623;SDS011;9959;49.798;9.928;2023-08-01T02:24:51;8.77;;;5.82;;
19623;SDS011;9959;49.798;9.928;2023-08-01T02:27:18;12.90;;;5.90;;
19623;SDS011;9959;49.798;9.928;2023-08-01T02:29:45;11.98;;;6.28;;
19623;SDS011;9959;49.798;9.928;2023-08-01T02:32:12;12.80;;;6.40;;
19623;SDS011;9959;49.798;9.928;2023-08-01T02:34:38;13.57;;;5.85;;
19623;SDS011;9959;49.798;9.928;2023-08-01T02:37:05;15.70;;;6.72;;
19623;SDS011;9959;49.798;9.928;2023-08-01T02:39:32;13.10;;;6.47;;
19623;SDS011;9959;49.798;9.928;2023-08-01T02:41:59;18.00;;;6.50;;
19623;SDS011;9959;49.798;9.928;2023-08-01T02:44:26;14.40;;;5.95;;
19623;SDS011;9959;49.798;9.928;2023-08-01T02:46:54;10.40;;;5.80;;
19623;SDS011;9959;49.798;9.928;2023-08-01T02:49:21;9.55;;;5.95;;
19623;SDS011;9959;49.798;9.928;2023-08-01T02:51:48;13.10;;;5.55;;
19623;SDS011;9959;49.798;9.928;2023-08-01T02:54:15;10.77;;;5.93;;
19623;SDS011;9959;49.798;9.928;2023-08-01T02:56:41;9.05;;;5.75;;
19623;SDS011;9959;49.798;9.928;2023-08-01T02:59:08;9.10;;;5.50;;
19623;SDS011;9959;49.798;9.928;2023-08-01T03:01:35;12.88;;;5.50;;
19623;SDS011;9959;49.798;9.928;2023-08-01T03:04:03;11.35;;;5.63;;
19623;SDS011;9959;49.798;9.928;2023-08-01T03:06:32;10.50;;;5.80;;
19623;SDS011;9959;49.798;9.928;2023-08-01T03:09:00;13.40;;;6.20;;
19623;SDS011;9959;49.798;9.928;2023-08-01T03:11:27;11.75;;;5.60;;
19623;SDS011;9959;49.798;9.928;2023-08-01T03:13:54;12.10;;;5.30;;
19623;SDS011;9959;49.798;9.928;2023-08-01T03:16:21;11.27;;;6.00;;
19623;SDS011;9959;49.798;9.928;2023-08-01T03:18:48;13.00;;;6.03;;
19623;SDS011;9959;49.798;9.928;2023-08-01T03:21:14;14.13;;;6.45;;
19623;SDS011;9959;49.798;9.928;2023-08-01T03:23:41;10.02;;;5.47;;
19623;SDS011;9959;49.798;9.928;2023-08-01T03:26:08;18.45;;;6.45;;
19623;SDS011;9959;49.798;9.928;2023-08-01T03:28:35;12.60;;;5.82;;
19623;SDS011;9959;49.798;9.928;2023-08-01T03:31:02;14.05;;;5.97;;
19623;SDS011;9959;49.798;9.928;2023-08-01T03:33:29;10.15;;;5.72;;
19623;SDS011;9959;49.798;9.928;2023-08-01T03:35:56;12.10;;;5.40;;
19623;SDS011;9959;49.798;9.928;2023-08-01T03:38:23;11.32;;;5.47;;
19623;SDS011;9959;49.798;9.928;2023-08-01T03:40:50;12.05;;;5.85;;
19623;SDS011;9959;49.798;9.928;2023-08-01T03:43:17;8.43;;;4.88;;
19623;SDS011;9959;49.798;9.928;2023-08-01T03:45:50;10.93;;;5.15;;
19623;SDS011;9959;49.798;9.928;2023-08-01T03:48:17;7.95;;;4.82;;
19623;SDS011;9959;49.798;9.928;2023-08-01T03:50:44;9.48;;;4.90;;
19623;SDS011;9959;49.798;9.928;2023-08-01T03:53:11;8.73;;;5.03;;
19623;SDS011;9959;49.798;9.928;2023-08-01T03:55:38;9.68;;;5.38;;
19623;SDS011;9959;49.798;9.928;2023-08-01T03:58:05;10.65;;;5.22;;
19623;SDS011;9959;49.798;9.928;2023-08-01T04:00:32;9.73;;;5.30;;
19623;SDS011;9959;49.798;9.928;2023-08-01T04:02:59;8.75;;;5.45;;
19623;SDS011;9959;49.798;9.928;2023-08-01T04:05:28;9.75;;;5.70;;
19623;SDS011;9959;49.798;9.928;2023-08-01T04:07:55;10.55;;;5.28;;
19623;SDS011;9959;49.798;9.928;2023-08-01T04:10:23;10.40;;;5.75;;
19623;SDS011;9959;49.798;9.928;2023-08-01T04:12:53;9.93;;;5.35;;
19623;SDS011;9959;49.798;9.928;2023-08-01T04:15:20;10.27;;;5.88;;
19623;SDS011;9959;49.798;9.928;2023-08-01T04:17:47;11.95;;;6.03;;
19623;SDS011;9959;49.798;9.928;2023-08-01T04:20:14;9.68;;;6.38;;
19623;SDS011;9959;49.798;9.928;2023-08-01T04:22:41;10.57;;;6.55;;
19623;SDS011;9959;49.798;9.928;2023-08-01T04:25:08;14.15;;;6.80;;
19623;SDS011;9959;49.798;9.928;2023-08-01T04:27:35;12.27;;;6.65;;
19623;SDS011;9959;49.798;9.928;2023-08-01T04:30:02;13.40;;;6.30;;
19623;SDS011;9959;49.798;9.928;2023-08-01T04:32:29;9.65;;;6.47;;
19623;SDS011;9959;49.798;9.928;2023-08-01T04:34:56;10.20;;;6.40;;
19623;SDS011;9959;49.798;9.928;2023-08-01T04:37:23;11.32;;;6.65;;
19623;SDS011;9959;49.798;9.928;2023-08-01T04:39:49;9.25;;;5.35;;
19623;SDS011;9959;49.798;9.928;2023-08-01T04:42:16;8.20;;;5.72;;
19623;SDS011;9959;49.798;9.928;2023-08-01T04:44:43;9.13;;;5.47;;
19623;SDS011;9959;49.798;9.928;2023-08-01T04:47:10;10.52;;;5.32;;
19623;SDS011;9959;49.798;9.928;2023-08-01T04:49:37;8.80;;;5.13;;
19623;SDS011;9959;49.798;9.928;2023-08-01T04:52:04;12.23;;;5.53;;
19623;SDS011;9959;49.798;9.928;2023-08-01T04:54:33;7.30;;;4.82;;
19623;SDS011;9959;49.798;9.928;2023-08-01T04:57:00;8.93;;;5.20;;
19623;SDS011;9959;49.798;9.928;2023-08-01T04:59:27;8.07;;;4.70;;
19623;SDS011;9959;49.798;9.928;2023-08-01T05:01:54;6.45;;;4.57;;
19623;SDS011;9959;49.798;9.928;2023-08-01T05:04:21;7.50;;;4.85;;
19623;SDS011;9959;49.798;9.928;2023-08-01T05:06:48;8.88;;;4.78;;
19623;SDS011;9959;49.798;9.928;2023-08-01T05:09:15;7.90;;;4.45;;
19623;SDS011;9959;49.798;9.928;2023-08-01T05:11:42;9.77;;;4.88;;
19623;SDS011;9959;49.798;9.928;2023-08-01T05:14:08;10.82;;;4.97;;
19623;SDS011;9959;49.798;9.928;2023-08-01T05:16:35;8.57;;;4.63;;
19623;SDS011;9959;49.798;9.928;2023-08-01T05:19:02;7.22;;;4.28;;
19623;SDS011;9959;49.798;9.928;2023-08-01T05:21:29;7.03;;;4.38;;
19623;SDS011;9959;49.798;9.928;2023-08-01T05:23:56;7.50;;;4.07;;
19623;SDS011;9959;49.798;9.928;2023-08-01T05:26:24;7.03;;;4.05;;
19623;SDS011;9959;49.798;9.928;2023-08-01T05:28:51;10.15;;;4.00;;
19623;SDS011;9959;49.798;9.928;2023-08-01T05:31:18;10.13;;;4.15;;
19623;SDS011;9959;49.798;9.928;2023-08-01T05:33:45;7.10;;;4.03;;
19623;SDS011;9959;49.798;9.928;2023-08-01T05:36:12;10.40;;;4.68;;
19623;SDS011;9959;49.798;9.928;2023-08-01T05:38:38;7.80;;;4.68;;
19623;SDS011;9959;49.798;9.928;2023-08-01T05:41:05;8.60;;;4.40;;
19623;SDS011;9959;49.798;9.928;2023-08-01T05:43:32;8.23;;;4.45;;
19623;SDS011;9959;49.798;9.928;2023-08-01T05:45:59;10.55;;;5.07;;
19623;SDS011;9959;49.798;9.928;2023-08-01T05:48:26;11.75;;;5.05;;
19623;SDS011;9959;49.798;9.928;2023-08-01T05:50:54;7.30;;;4.88;;
19623;SDS011;9959;49.798;9.928;2023-08-01T05:53:22;7.05;;;4.40;;
19623;SDS011;9959;49.798;9.928;2023-08-01T05:55:49;11.43;;;5.40;;
19623;SDS011;9959;49.798;9.928;2023-08-01T05:58:16;9.30;;;4.68;;
19623;SDS011;9959;49.798;9.928;2023-08-01T06:00:43;7.07;;;4.50;;
19623;SDS011;9959;49.798;9.928;2023-08-01T06:03:10;8.48;;;4.63;;
19623;SDS011;9959;49.798;9.928;2023-08-01T06:05:37;10.43;;;4.63;;
19623;SDS011;9959;49.798;9.928;2023-08-01T06:08:05;8.57;;;5.13;;
19623;SDS011;9959;49.798;9.928;2023-08-01T06:10:33;6.13;;;4.20;;
19623;SDS011;9959;49.798;9.928;2023-08-01T06:13:01;7.57;;;4.55;;
19623;SDS011;9959;49.798;9.928;2023-08-01T06:15:28;9.98;;;4.50;;
19623;SDS011;9959;49.798;9.928;2023-08-01T06:17:55;6.22;;;4.28;;
19623;SDS011;9959;49.798;9.928;2023-08-01T06:20:21;10.27;;;4.80;;
19623;SDS011;9959;49.798;9.928;2023-08-01T06:22:48;6.78;;;3.95;;
19623;SDS011;9959;49.798;9.928;2023-08-01T06:25:15;8.55;;;3.40;;
19623;SDS011;9959;49.798;9.928;2023-08-01T06:27:43;7.60;;;4.05;;
19623;SDS011;9959;49.798;9.928;2023-08-01T06:30:10;8.82;;;4.07;;
19623;SDS011;9959;49.798;9.928;2023-08-01T06:32:37;6.10;;;4.00;;
19623;SDS011;9959;49.798;9.928;2023-08-01T06:35:04;6.93;;;3.95;;
19623;SDS011;9959;49.798;9.928;2023-08-01T06:37:31;6.15;;;3.13;;
19623;SDS011;9959;49.798;9.928;2023-08-01T06:39:58;4.72;;;3.25;;
19623;SDS011;9959;49.798;9.928;2023-08-01T06:42:26;12.05;;;3.95;;
19623;SDS011;9959;49.798;9.928;2023-08-01T06:44:52;5.28;;;3.40;;
19623;SDS011;9959;49.798;9.928;2023-08-01T06:47:19;5.38;;;3.25;;
19623;SDS011;9959;49.798;9.928;2023-08-01T06:49:46;6.05;;;2.90;;
19623;SDS011;9959;49.798;9.928;2023-08-01T06:52:13;5.45;;;3.03;;
19623;SDS011;9959;49.798;9.928;2023-08-01T06:54:40;6.80;;;3.20;;
19623;SDS011;9959;49.798;9.928;2023-08-01T06:57:07;5.93;;;3.35;;
19623;SDS011;9959;49.798;9.928;2023-08-01T06:59:34;5.88;;;3.35;;
19623;SDS011;9959;49.798;9.928;2023-08-01T07:02:01;5.55;;;3.42;;
19623;SDS011;9959;49.798;9.928;2023-08-01T07:04:28;7.78;;;4.22;;
19623;SDS011;9959;49.798;9.928;2023-08-01T07:06:55;8.43;;;4.00;;
19623;SDS011;9959;49.798;9.928;2023-08-01T07:09:21;11.93;;;4.60;;
19623;SDS011;9959;49.798;9.928;2023-08-01T07:11:48;6.82;;;3.92;;
19623;SDS011;9959;49.798;9.928;2023-08-01T07:14:15;7.25;;;4.43;;
19623;SDS011;9959;49.798;9.928;2023-08-01T07:16:42;5.55;;;3.83;;
19623;SDS011;9959;49.798;9.928;2023-08-01T07:19:09;5.05;;;3.63;;
19623;SDS011;9959;49.798;9.928;2023-08-01T07:21:36;5.88;;;3.50;;
19623;SDS011;9959;49.798;9.928;2023-08-01T07:24:04;6.95;;;3.75;;
19623;SDS011;9959;49.798;9.928;2023-08-01T07:26:31;5.50;;;3.45;;
19623;SDS011;9959;49.798;9.928;2023-08-01T07:28:58;6.50;;;4.28;;
19623;SDS011;9959;49.798;9.928;2023-08-01T07:31:24;6.75;;;3.90;;
19623;SDS011;9959;49.798;9.928;2023-08-01T07:33:51;5.88;;;3.20;;
19623;SDS011;9959;49.798;9.928;2023-08-01T07:36:18;4.95;;;3.05;;
19623;SDS011;9959;49.798;9.928;2023-08-01T07:38:45;4.32;;;2.85;;
19623;SDS011;9959;49.798;9.928;2023-08-01T07:41:12;7.68;;;3.00;;
19623;SDS011;9959;49.798;9.928;2023-08-01T07:43:39;5.63;;;3.00;;
19623;SDS011;9959;49.798;9.928;2023-08-01T07:46:06;4.38;;;2.90;;
19623;SDS011;9959;49.798;9.928;2023-08-01T07:48:35;3.13;;;2.38;;
19623;SDS011;9959;49.798;9.928;2023-08-01T07:51:02;4.10;;;2.80;;
19623;SDS011;9959;49.798;9.928;2023-08-01T07:53:31;3.83;;;2.50;;
19623;SDS011;9959;49.798;9.928;2023-08-01T07:55:58;3.00;;;2.15;;
19623;SDS011;9959;49.798;9.928;2023-08-01T07:58:25;4.93;;;2.20;;
19623;SDS011;9959;49.798;9.928;2023-08-01T08:00:52;2.10;;;1.77;;
19623;SDS011;9959;49.798;9.928;2023-08-01T08:03:19;3.17;;;2.20;;
19623;SDS011;9959;49.798;9.928;2023-08-01T08:05:49;2.40;;;1.80;;
19623;SDS011;9959;49.798;9.928;2023-08-01T08:08:16;3.10;;;2.13;;
19623;SDS011;9959;49.798;9.928;2023-08-01T08:10:43;3.72;;;1.90;;
19623;SDS011;9959;49.798;9.928;2023-08-01T08:13:10;2.97;;;2.20;;
19623;SDS011;9959;49.798;9.928;2023-08-01T08:15:37;2.85;;;1.88;;
19623;SDS011;9959;49.798;9.928;2023-08-01T08:18:04;3.05;;;1.88;;
19623;SDS011;9959;49.798;9.928;2023-08-01T08:20:31;2.00;;;1.58;;
19623;SDS011;9959;49.798;9.928;2023-08-01T08:23:06;2.60;;;1.75;;
19623;SDS011;9959;49.798;9.928;2023-08-01T08:25:33;1.80;;;1.50;;
19623;SDS011;9959;49.798;9.928;2023-08-01T08:28:00;3.50;;;1.40;;
19623;SDS011;9959;49.798;9.928;2023-08-01T08:30:27;3.28;;;1.60;;
19623;SDS011;9959;49.798;9.928;2023-08-01T08:32:54;2.90;;;1.90;;
19623;SDS011;9959;49.798;9.928;2023-08-01T08:35:21;3.25;;;1.60;;
19623;SDS011;9959;49.798;9.928;2023-08-01T08:37:48;2.17;;;1.70;;
19623;SDS011;9959;49.798;9.928;2023-08-01T08:40:15;1.67;;;1.58;;
19623;SDS011;9959;49.798;9.928;2023-08-01T08:42:42;3.03;;;1.77;;
19623;SDS011;9959;49.798;9.928;2023-08-01T08:45:11;1.98;;;1.60;;
19623;SDS011;9959;49.798;9.928;2023-08-01T08:47:41;3.00;;;1.50;;
19623;SDS011;9959;49.798;9.928;2023-08-01T08:50:11;2.15;;;1.60;;
19623;SDS011;9959;49.798;9.928;2023-08-01T08:52:39;1.85;;;1.52;;
19623;SDS011;9959;49.798;9.928;2023-08-01T08:55:07;1.40;;;1.30;;
19623;SDS011;9959;49.798;9.928;2023-08-01T08:57:34;1.80;;;1.38;;
19623;SDS011;9959;49.798;9.928;2023-08-01T09:00:02;1.40;;;1.30;;
19623;SDS011;9959;49.798;9.928;2023-08-01T09:02:34;1.50;;;1.40;;
19623;SDS011;9959;49.798;9.928;2023-08-01T09:05:01;2.92;;;1.40;;
19623;SDS011;9959;49.798;9.928;2023-08-01T09:07:29;2.78;;;1.60;;
19623;SDS011;9959;49.798;9.928;2023-08-01T09:10:00;2.63;;;1.92;;
19623;SDS011;9959;49.798;9.928;2023-08-01T09:12:27;1.95;;;1.63;;
19623;SDS011;9959;49.798;9.928;2023-08-01T09:14:54;4.90;;;1.60;;
19623;SDS011;9959;49.798;9.928;2023-08-01T09:17:25;2.10;;;1.40;;
19623;SDS011;9959;49.798;9.928;2023-08-01T09:19:55;2.15;;;1.88;;
19623;SDS011;9959;49.798;9.928;2023-08-01T09:22:30;1.42;;;1.27;;
19623;SDS011;9959;49.798;9.928;2023-08-01T09:25:08;7.18;;;1.60;;
19623;SDS011;9959;49.798;9.928;2023-08-01T09:27:34;3.67;;;1.58;;
19623;SDS011;9959;49.798;9.928;2023-08-01T09:30:09;3.22;;;1.60;;
19623;SDS011;9959;49.798;9.928;2023-08-01T09:32:38;4.05;;;1.50;;
19623;SDS011;9959;49.798;9.928;2023-08-01T09:35:05;3.70;;;1.80;;
19623;SDS011;9959;49.798;9.928;2023-08-01T09:37:41;4.30;;;2.00;;
19623;SDS011;9959;49.798;9.928;2023-08-01T09:40:09;3.92;;;1.90;;
19623;SDS011;9959;49.798;9.928;2023-08-01T09:42:40;3.92;;;1.60;;
19623;SDS011;9959;49.798;9.928;2023-08-01T09:45:14;5.32;;;1.67;;
19623;SDS011;9959;49.798;9.928;2023-08-01T09:47:45;4.53;;;1.58;;
19623;SDS011;9959;49.798;9.928;2023-08-01T09:50:23;3.92;;;1.48;;
19623;SDS011;9959;49.798;9.928;2023-08-01T09:52:50;4.22;;;1.45;;
19623;SDS011;9959;49.798;9.928;2023-08-01T09:55:33;3.97;;;1.40;;
19623;SDS011;9959;49.798;9.928;2023-08-01T09:58:01;3.55;;;1.70;;
19623;SDS011;9959;49.798;9.928;2023-08-01T10:00:28;2.17;;;1.50;;
19623;SDS011;9959;49.798;9.928;2023-08-01T10:02:59;3.50;;;1.58;;
19623;SDS011;9959;49.798;9.928;2023-08-01T10:05:30;2.17;;;1.60;;
19623;SDS011;9959;49.798;9.928;2023-08-01T10:07:59;2.38;;;1.60;;
19623;SDS011;9959;49.798;9.928;2023-08-01T10:10:27;1.98;;;1.30;;
19623;SDS011;9959;49.798;9.928;2023-08-01T10:12:56;2.20;;;1.60;;
19623;SDS011;9959;49.798;9.928;2023-08-01T10:15:26;2.70;;;1.45;;
19623;SDS011;9959;49.798;9.928;2023-08-01T10:17:55;2.10;;;1.60;;
19623;SDS011;9959;49.798;9.928;2023-08-01T10:20:23;1.90;;;1.48;;
19623;SDS011;9959;49.798;9.928;2023-08-01T10:22:51;1.63;;;1.20;;
19623;SDS011;9959;49.798;9.928;2023-08-01T10:25:19;4.10;;;1.55;;
19623;SDS011;9959;49.798;9.928;2023-08-01T10:28:00;2.80;;;1.23;;
19623;SDS011;9959;49.798;9.928;2023-08-01T10:30:28;1.77;;;1.30;;
19623;SDS011;9959;49.798;9.928;2023-08-01T10:32:56;2.20;;;1.30;;
19623;SDS011;9959;49.798;9.928;2023-08-01T10:35:33;3.05;;;1.60;;
19623;SDS011;9959;49.798;9.928;2023-08-01T10:38:05;2.00;;;1.42;;
19623;SDS011;9959;49.798;9.928;2023-08-01T10:40:39;2.30;;;1.50;;
19623;SDS011;9959;49.798;9.928;2023-08-01T10:43:23;3.75;;;1.50;;
19623;SDS011;9959;49.798;9.928;2023-08-01T10:46:01;2.45;;;1.40;;
19623;SDS011;9959;49.798;9.928;2023-08-01T10:48:29;1.58;;;1.23;;
19623;SDS011;9959;49.798;9.928;2023-08-01T10:50:56;4.40;;;1.30;;
19623;SDS011;9959;49.798;9.928;2023-08-01T10:53:23;3.58;;;1.30;;
19623;SDS011;9959;49.798;9.928;2023-08-01T10:55:51;1.35;;;1.25;;
19623;SDS011;9959;49.798;9.928;2023-08-01T10:58:18;1.60;;;1.50;;
19623;SDS011;9959;49.798;9.928;2023-08-01T11:00:45;4.72;;;1.83;;
19623;SDS011;9959;49.798;9.928;2023-08-01T11:03:12;3.90;;;1.67;;
19623;SDS011;9959;49.798;9.928;2023-08-01T11:05:39;1.50;;;1.38;;
19623;SDS011;9959;49.798;9.928;2023-08-01T11:08:06;2.13;;;1.50;;
19623;SDS011;9959;49.798;9.928;2023-08-01T11:10:33;2.97;;;1.45;;
19623;SDS011;9959;49.798;9.928;2023-08-01T11:13:00;1.42;;;1.15;;
19623;SDS011;9959;49.798;9.928;2023-08-01T11:15:27;1.63;;;1.50;;
19623;SDS011;9959;49.798;9.928;2023-08-01T11:17:55;3.00;;;1.60;;
19623;SDS011;9959;49.798;9.928;2023-08-01T11:20:23;2.05;;;1.48;;
19623;SDS011;9959;49.798;9.928;2023-08-01T11:25:37;3.17;;;1.35;;
19623;SDS011;9959;49.798;9.928;2023-08-01T11:28:06;1.83;;;1.50;;
19623;SDS011;9959;49.798;9.928;2023-08-01T11:30:34;1.50;;;1.40;;
19623;SDS011;9959;49.798;9.928;2023-08-01T11:33:02;1.98;;;1.33;;
19623;SDS011;9959;49.798;9.928;2023-08-01T11:35:39;1.45;;;1.27;;
19623;SDS011;9959;49.798;9.928;2023-08-01T11:38:07;2.53;;;1.65;;
19623;SDS011;9959;49.798;9.928;2023-08-01T11:40:34;1.77;;;1.38;;
19623;SDS011;9959;49.798;9.928;2023-08-01T11:43:01;2.20;;;1.33;;
19623;SDS011;9959;49.798;9.928;2023-08-01T11:45:29;1.30;;;1.20;;
19623;SDS011;9959;49.798;9.928;2023-08-01T11:47:56;2.70;;;1.50;;
19623;SDS011;9959;49.798;9.928;2023-08-01T11:50:24;3.58;;;1.60;;
19623;SDS011;9959;49.798;9.928;2023-08-01T11:52:52;2.15;;;1.30;;
19623;SDS011;9959;49.798;9.928;2023-08-01T11:55:24;1.60;;;1.50;;
19623;SDS011;9959;49.798;9.928;2023-08-01T11:57:56;1.40;;;1.30;;
19623;SDS011;9959;49.798;9.928;2023-08-01T12:00:25;1.73;;;1.45;;
19623;SDS011;9959;49.798;9.928;2023-08-01T12:03:04;2.40;;;1.40;;
19623;SDS011;9959;49.798;9.928;2023-08-01T12:05:39;2.28;;;1.50;;
19623;SDS011;9959;49.798;9.928;2023-08-01T12:08:12;3.35;;;1.20;;
19623;SDS011;9959;49.798;9.928;2023-08-01T12:10:41;2.08;;;1.40;;
19623;SDS011;9959;49.798;9.928;2023-08-01T12:13:24;1.35;;;1.15;;
19623;SDS011;9959;49.798;9.928;2023-08-01T12:15:53;1.65;;;1.30;;
19623;SDS011;9959;49.798;9.928;2023-08-01T12:18:28;2.67;;;1.38;;
19623;SDS011;9959;49.798;9.928;2023-08-01T12:20:59;3.00;;;1.42;;
19623;SDS011;9959;49.798;9.928;2023-08-01T12:23:26;2.10;;;1.35;;
19623;SDS011;9959;49.798;9.928;2023-08-01T12:25:52;1.35;;;1.25;;
19623;SDS011;9959;49.798;9.928;2023-08-01T12:28:19;1.75;;;1.30;;
19623;SDS011;9959;49.798;9.928;2023-08-01T12:30:46;3.60;;;1.50;;
19623;SDS011;9959;49.798;9.928;2023-08-01T12:33:13;3.10;;;1.30;;
19623;SDS011;9959;49.798;9.928;2023-08-01T12:35:40;5.70;;;1.63;;
19623;SDS011;9959;49.798;9.928;2023-08-01T12:38:08;2.05;;;1.50;;
19623;SDS011;9959;49.798;9.928;2023-08-01T12:40:36;1.70;;;1.60;;
19623;SDS011;9959;49.798;9.928;2023-08-01T12:43:03;2.05;;;1.40;;
19623;SDS011;9959;49.798;9.928;2023-08-01T12:45:29;3.00;;;1.45;;
19623;SDS011;9959;49.798;9.928;2023-08-01T12:47:56;2.85;;;1.38;;
19623;SDS011;9959;49.798;9.928;2023-08-01T12:50:23;2.53;;;1.42;;
19623;SDS011;9959;49.798;9.928;2023-08-01T12:52:50;2.10;;;1.48;;
19623;SDS011;9959;49.798;9.928;2023-08-01T12:55:17;1.55;;;1.40;;
19623;SDS011;9959;49.798;9.928;2023-08-01T12:57:44;2.05;;;1.40;;
19623;SDS011;9959;49.798;9.928;2023-08-01T13:00:11;4.22;;;2.00;;
19623;SDS011;9959;49.798;9.928;2023-08-01T13:02:38;2.10;;;1.80;;
19623;SDS011;9959;49.798;9.928;2023-08-01T13:05:05;1.40;;;1.30;;
19623;SDS011;9959;49.798;9.928;2023-08-01T13:07:32;4.43;;;1.60;;
19623;SDS011;9959;49.798;9.928;2023-08-01T13:10:00;2.10;;;1.65;;
19623;SDS011;9959;49.798;9.928;2023-08-01T13:12:27;1.25;;;1.15;;
19623;SDS011;9959;49.798;9.928;2023-08-01T13:14:54;1.73;;;1.20;;
19623;SDS011;9959;49.798;9.928;2023-08-01T13:17:40;1.33;;;1.17;;
19623;SDS011;9959;49.798;9.928;2023-08-01T13:20:08;2.40;;;1.50;;
19623;SDS011;9959;49.798;9.928;2023-08-01T13:22:35;2.05;;;1.30;;
19623;SDS011;9959;49.798;9.928;2023-08-01T13:25:01;2.00;;;1.25;;
19623;SDS011;9959;49.798;9.928;2023-08-01T13:27:30;2.65;;;1.63;;
19623;SDS011;9959;49.798;9.928;2023-08-01T13:29:57;8.52;;;1.60;;
19623;SDS011;9959;49.798;9.928;2023-08-01T13:32:23;2.80;;;1.52;;
19623;SDS011;9959;49.798;9.928;2023-08-01T13:34:50;7.30;;;1.75;;
19623;SDS011;9959;49.798;9.928;2023-08-01T13:37:17;4.68;;;1.50;;
19623;SDS011;9959;49.798;9.928;2023-08-01T13:39:44;4.15;;;1.70;;
19623;SDS011;9959;49.798;9.928;2023-08-01T13:42:12;3.10;;;1.60;;
19623;SDS011;9959;49.798;9.928;2023-08-01T13:44:39;2.97;;;1.52;;
19623;SDS011;9959;49.798;9.928;2023-08-01T13:47:07;4.25;;;1.38;;
19623;SDS011;9959;49.798;9.928;2023-08-01T13:49:34;2.95;;;1.33;;
19623;SDS011;9959;49.798;9.928;2023-08-01T13:52:01;2.80;;;1.60;;
19623;SDS011;9959;49.798;9.928;2023-08-01T13:54:29;2.75;;;1.50;;
19623;SDS011;9959;49.798;9.928;2023-08-01T13:56:56;2.60;;;1.40;;
19623;SDS011;9959;49.798;9.928;2023-08-01T13:59:24;2.20;;;1.30;;
19623;SDS011;9959;49.798;9.928;2023-08-01T14:01:50;1.50;;;1.25;;
19623;SDS011;9959;49.798;9.928;2023-08-01T14:04:19;4.20;;;1.40;;
19623;SDS011;9959;49.798;9.928;2023-08-01T14:06:46;4.75;;;1.60;;
19623;SDS011;9959;49.798;9.928;2023-08-01T14:09:14;1.52;;;1.38;;
19623;SDS011;9959;49.798;9.928;2023-08-01T14:11:40;1.77;;;1.30;;
19623;SDS011;9959;49.798;9.928;2023-08-01T14:14:07;2.20;;;1.20;;
19623;SDS011;9959;49.798;9.928;2023-08-01T14:16:34;1.65;;;1.50;;
19623;SDS011;9959;49.798;9.928;2023-08-01T14:19:01;6.80;;;1.50;;
19623;SDS011;9959;49.798;9.928;2023-08-01T14:21:30;1.60;;;1.20;;
19623;SDS011;9959;49.798;9.928;2023-08-01T14:23:57;2.50;;;1.40;;
19623;SDS011;9959;49.798;9.928;2023-08-01T14:26:24;2.65;;;1.33;;
19623;SDS011;9959;49.798;9.928;2023-08-01T14:28:51;2.45;;;1.63;;
19623;SDS011;9959;49.798;9.928;2023-08-01T14:31:18;3.10;;;1.38;;
19623;SDS011;9959;49.798;9.928;2023-08-01T14:33:45;3.80;;;1.50;;
19623;SDS011;9959;49.798;9.928;2023-08-01T14:36:12;2.58;;;1.60;;
19623;SDS011;9959;49.798;9.928;2023-08-01T14:38:39;2.53;;;1.55;;
19623;SDS011;9959;49.798;9.928;2023-08-01T14:41:06;2.92;;;1.65;;
19623;SDS011;9959;49.798;9.928;2023-08-01T14:43:43;2.50;;;1.80;;
19623;SDS011;9959;49.798;9.928;2023-08-01T14:46:11;1.67;;;1.52;;
19623;SDS011;9959;49.798;9.928;2023-08-01T14:48:38;3.58;;;1.95;;
19623;SDS011;9959;49.798;9.928;2023-08-01T14:51:06;2.38;;;1.40;;
19623;SDS011;9959;49.798;9.928;2023-08-01T14:53:34;2.22;;;1.40;;
19623;SDS011;9959;49.798;9.928;2023-08-01T14:56:01;3.83;;;1.85;;
19623;SDS011;9959;49.798;9.928;2023-08-01T14:58:32;1.95;;;1.67;;
19623;SDS011;9959;49.798;9.928;2023-08-01T15:00:59;1.80;;;1.52;;
19623;SDS011;9959;49.798;9.928;2023-08-01T15:03:26;2.58;;;1.50;;
19623;SDS011;9959;49.798;9.928;2023-08-01T15:05:53;3.03;;;1.40;;